createdAt,value
2022-12-14T00:00:34.961Z,99750.84
2022-12-14T00:03:20.995Z,99758.50
2022-12-14T00:05:52.707Z,99756.31
2022-12-14T00:08:20.780Z,99750.44
2022-12-14T00:10:49.321Z,99740.63
2022-12-14T00:13:20.251Z,99735.03
2022-12-14T00:15:55.803Z,99734.94
2022-12-14T00:18:30.031Z,99741.03
2022-12-14T00:21:14.258Z,99744.94
2022-12-14T00:23:51.984Z,99745.13
2022-12-14T00:26:29.710Z,99744.53
2022-12-14T00:29:03.951Z,99758.25
2022-12-14T00:31:35.742Z,99759.25
2022-12-14T00:34:07.443Z,99749.44
2022-12-14T00:36:38.241Z,99747.44
2022-12-14T00:39:07.612Z,99739.19
2022-12-14T00:41:40.527Z,99735.47
2022-12-14T00:44:11.008Z,99743.31
2022-12-14T00:46:44.139Z,99743.31
2022-12-14T00:49:13.935Z,99745.38
2022-12-14T00:51:46.435Z,99732.72
2022-12-14T00:54:16.937Z,99730.53
2022-12-14T00:56:49.831Z,99727.59
2022-12-14T00:59:26.974Z,99717.78
2022-12-14T01:02:01.859Z,99723.56
2022-12-14T01:04:35.922Z,99719.06
2022-12-14T01:07:08.321Z,99728.56
2022-12-14T01:09:40.917Z,99718.56
2022-12-14T01:12:12.975Z,99713.28
2022-12-14T01:14:47.346Z,99717.78
2022-12-14T01:17:21.125Z,99706.41
2022-12-14T01:19:55.096Z,99702.78
2022-12-14T01:22:29.601Z,99693.09
2022-12-14T01:25:00.846Z,99684.66
2022-12-14T01:27:32.608Z,99694.47
2022-12-14T01:30:04.962Z,99683.28
2022-12-14T01:32:37.216Z,99687.97
2022-12-14T01:35:09.587Z,99679.25
2022-12-14T01:37:41.450Z,99687.69
2022-12-14T01:40:13.324Z,99682.06
2022-12-14T01:42:48.571Z,99663.22
2022-12-14T01:45:25.620Z,99663.81
2022-12-14T01:48:05.883Z,99657.75
2022-12-14T01:50:48.196Z,99658.53
2022-12-14T01:53:24.024Z,99639.22
2022-12-14T01:55:58.572Z,99629.69
2022-12-14T01:58:29.026Z,99623.78
2022-12-14T02:01:00.729Z,99617.56
2022-12-14T02:03:41.233Z,99623.06
2022-12-14T02:06:28.922Z,99627.44
2022-12-14T02:09:02.971Z,99632.63
2022-12-14T02:12:02.593Z,99632.31
2022-12-14T02:14:38.372Z,99634.19
2022-12-14T02:17:12.385Z,99628.88
2022-12-14T02:19:47.946Z,99609.22
2022-12-14T02:22:58.912Z,99610.69
2022-12-14T02:26:06.786Z,99605.03
2022-12-14T02:29:06.037Z,99611.88
2022-12-14T02:32:25.026Z,99603.47
2022-12-14T02:35:06.890Z,99606.59
2022-12-14T02:37:49.411Z,99598.34
2022-12-14T02:40:40.414Z,99603.03
2022-12-14T02:43:35.225Z,99592.72
2022-12-14T02:46:31.975Z,99593.69
2022-12-14T02:49:16.268Z,99598.88
2022-12-14T02:52:46.010Z,99593.47
2022-12-14T02:55:36.968Z,99592.91
2022-12-14T02:58:28.507Z,99591.78
2022-12-14T03:00:57.466Z,99585.72
2022-12-14T03:03:25.648Z,99572.75
2022-12-14T03:06:14.711Z,99568.06
2022-12-14T03:08:46.949Z,99581.16
2022-12-14T03:11:27.914Z,99589.41
2022-12-14T03:14:25.401Z,99594.84
2022-12-14T03:16:57.245Z,99593.75
2022-12-14T03:19:57.002Z,99589.81
2022-12-14T03:22:33.688Z,99589.19
2022-12-14T03:25:09.569Z,99583.69
2022-12-14T03:27:44.769Z,99582.25
2022-12-14T03:30:31.716Z,99571.78
2022-12-14T03:33:13.669Z,99566.50
2022-12-14T03:35:56.722Z,99568.53
2022-12-14T03:38:30.186Z,99574.59
2022-12-14T03:41:38.210Z,99569.47
2022-12-14T03:44:31.003Z,99577.75
2022-12-14T03:47:18.513Z,99573.22
2022-12-14T03:50:18.219Z,99577.13
2022-12-14T03:53:49.760Z,99576.47
2022-12-14T03:57:06.552Z,99585.03
2022-12-14T03:59:41.202Z,99582.38
2022-12-14T04:02:44.165Z,99592.09
2022-12-14T04:05:20.769Z,99594.44
2022-12-14T04:08:02.173Z,99602.84
2022-12-14T04:11:02.737Z,99601.47
2022-12-14T04:13:59.306Z,99603.50
2022-12-14T04:16:51.726Z,99600.25
2022-12-14T04:19:44.503Z,99590.41
2022-12-14T04:22:25.140Z,99585.31
2022-12-14T04:25:36.298Z,99587.03
2022-12-14T04:28:49.168Z,99588.59
2022-12-14T04:31:21.583Z,99590.47
2022-12-14T04:33:56.134Z,99574.88
2022-12-14T04:36:45.623Z,99579.53
2022-12-14T04:39:36.156Z,99572.09
2022-12-14T04:42:08.033Z,99565.38
2022-12-14T04:44:49.105Z,99572.56
2022-12-14T04:47:19.812Z,99567.09
2022-12-14T04:49:56.216Z,99568.63
2022-12-14T04:52:28.893Z,99559.31
2022-12-14T04:55:20.438Z,99557.59
2022-12-14T04:58:31.184Z,99561.97
2022-12-14T05:01:03.714Z,99554.50
2022-12-14T05:03:38.231Z,99555.47
2022-12-14T05:06:45.743Z,99545.78
2022-12-14T05:09:34.320Z,99547.16
2022-12-14T05:12:23.732Z,99544.66
2022-12-14T05:15:06.622Z,99539.34
2022-12-14T05:17:39.440Z,99531.59
2022-12-14T05:20:18.938Z,99516.00
2022-12-14T05:22:46.732Z,99514.41
2022-12-14T05:25:14.708Z,99518.16
2022-12-14T05:27:42.296Z,99500.69
2022-12-14T05:30:11.304Z,99506.47
2022-12-14T05:32:40.010Z,99510.69
2022-12-14T05:35:10.075Z,99498.97
2022-12-14T05:37:37.859Z,99498.50
2022-12-14T05:40:07.080Z,99503.19
2022-12-14T05:42:38.163Z,99518.94
2022-12-14T05:45:12.506Z,99522.84
2022-12-14T05:47:40.461Z,99524.09
2022-12-14T05:50:09.449Z,99513.19
2022-12-14T05:52:37.503Z,99516.91
2022-12-14T05:55:06.732Z,99513.97
2022-12-14T05:57:34.402Z,99515.53
2022-12-14T06:00:04.161Z,99519.44
2022-12-14T06:02:32.541Z,99516.16
2022-12-14T06:05:00.959Z,99502.28
2022-12-14T06:07:29.144Z,99503.06
2022-12-14T06:10:00.447Z,99508.06
2022-12-14T06:12:29.182Z,99500.09
2022-12-14T06:14:57.131Z,99491.84
2022-12-14T06:17:24.682Z,99503.22
2022-12-14T06:19:54.541Z,99501.34
2022-12-14T06:22:22.189Z,99500.88
2022-12-14T06:24:50.057Z,99493.38
2022-12-14T06:27:17.669Z,99503.84
2022-12-14T06:29:45.498Z,99479.97
2022-12-14T06:32:12.956Z,99470.63
2022-12-14T06:34:42.520Z,99474.34
2022-12-14T06:37:10.221Z,99478.09
2022-12-14T06:39:38.908Z,99482.00
2022-12-14T06:42:07.076Z,99481.22
2022-12-14T06:44:35.598Z,99479.03
2022-12-14T06:47:03.836Z,99477.66
2022-12-14T06:49:32.102Z,99478.72
2022-12-14T06:51:59.881Z,99489.81
2022-12-14T06:54:28.007Z,99489.03
2022-12-14T06:56:55.559Z,99472.34
2022-12-14T06:59:24.938Z,99486.69
2022-12-14T07:01:53.093Z,99473.56
2022-12-14T07:04:21.659Z,99480.09
2022-12-14T07:06:49.511Z,99472.66
2022-12-14T07:09:19.045Z,99481.38
2022-12-14T07:11:51.675Z,99472.81
2022-12-14T07:14:20.734Z,99472.50
2022-12-14T07:16:49.144Z,99475.00
2022-12-14T07:19:18.393Z,99471.38
2022-12-14T07:21:46.056Z,99477.34
2022-12-14T07:24:14.350Z,99485.63
2022-12-14T07:26:42.169Z,99474.84
2022-12-14T07:29:12.078Z,99485.91
2022-12-14T07:31:39.804Z,99481.69
2022-12-14T07:34:07.842Z,99496.06
2022-12-14T07:36:35.509Z,99505.72
2022-12-14T07:39:03.469Z,99503.88
2022-12-14T07:41:32.474Z,99515.72
2022-12-14T07:44:01.336Z,99519.97
2022-12-14T07:46:32.382Z,99512.00
2022-12-14T07:49:02.070Z,99510.25
2022-12-14T07:51:38.547Z,99523.53
2022-12-14T07:54:07.345Z,99504.50
2022-12-14T07:56:41.653Z,99521.19
2022-12-14T07:59:15.563Z,99513.38
2022-12-14T08:01:44.281Z,99521.50
2022-12-14T08:04:19.103Z,99525.41
2022-12-14T08:06:48.770Z,99518.69
2022-12-14T08:09:18.234Z,99512.00
2022-12-14T08:11:46.086Z,99511.38
2022-12-14T08:14:17.860Z,99509.94
2022-12-14T08:16:47.031Z,99503.25
2022-12-14T08:19:17.248Z,99508.41
2022-12-14T08:21:45.889Z,99501.34
2022-12-14T08:24:16.059Z,99502.31
2022-12-14T08:26:47.256Z,99503.22
2022-12-14T08:29:18.841Z,99497.28
2022-12-14T08:31:46.673Z,99496.66
2022-12-14T08:34:16.895Z,99491.34
2022-12-14T08:36:44.444Z,99493.69
2022-12-14T08:39:13.404Z,99492.56
2022-12-14T08:41:41.058Z,99501.16
2022-12-14T08:44:09.889Z,99492.56
2022-12-14T08:46:39.214Z,99498.00
2022-12-14T08:49:07.229Z,99480.22
2022-12-14T08:51:40.100Z,99466.28
2022-12-14T08:54:07.999Z,99452.38
2022-12-14T08:56:35.607Z,99458.31
2022-12-14T08:59:03.569Z,99467.50
2022-12-14T09:01:34.122Z,99463.75
2022-12-14T09:04:08.691Z,99462.97
2022-12-14T09:06:39.256Z,99450.94
2022-12-14T09:09:15.651Z,99452.16
2022-12-14T09:11:45.385Z,99450.16
2022-12-14T09:14:13.465Z,99448.28
2022-12-14T09:16:41.408Z,99435.44
2022-12-14T09:19:09.442Z,99434.34
2022-12-14T09:21:37.123Z,99431.50
2022-12-14T09:24:07.103Z,99428.22
2022-12-14T09:26:34.723Z,99426.63
2022-12-14T09:29:02.879Z,99432.72
2022-12-14T09:31:30.616Z,99418.81
2022-12-14T09:33:58.740Z,99423.94
2022-12-14T09:36:28.517Z,99410.78
2022-12-14T09:38:57.937Z,99423.25
2022-12-14T09:41:34.665Z,99410.84
2022-12-14T09:44:25.030Z,99399.91
2022-12-14T09:47:02.943Z,99398.28
2022-12-14T09:49:55.923Z,99379.81
2022-12-14T09:52:35.239Z,99377.41
2022-12-14T09:55:17.442Z,99363.91
2022-12-14T09:57:47.458Z,99363.38
2022-12-14T10:00:21.307Z,99368.94
2022-12-14T10:03:10.607Z,99365.44
2022-12-14T10:05:53.684Z,99356.94
2022-12-14T10:08:36.259Z,99367.38
2022-12-14T10:11:29.960Z,99384.22
2022-12-14T10:15:11.440Z,99376.72
2022-12-14T10:18:57.665Z,99380.47
2022-12-14T10:21:25.476Z,99384.22
2022-12-14T10:24:03.505Z,99384.22
2022-12-14T10:26:43.360Z,99385.16
2022-12-14T10:29:21.649Z,99379.06
2022-12-14T10:31:59.063Z,99368.53
2022-12-14T10:34:32.550Z,99358.00
2022-12-14T10:37:21.210Z,99352.78
2022-12-14T10:40:15.478Z,99345.91
2022-12-14T10:43:34.814Z,99344.16
2022-12-14T10:46:43.689Z,99349.91
2022-12-14T10:49:23.429Z,99350.78
2022-12-14T10:52:03.903Z,99345.91
2022-12-14T10:54:45.798Z,99343.69
2022-12-14T10:57:20.787Z,99350.34
2022-12-14T11:00:05.638Z,99342.50
2022-12-14T11:02:50.460Z,99331.41
2022-12-14T11:05:54.014Z,99326.44
2022-12-14T11:08:48.533Z,99328.41
2022-12-14T11:11:24.369Z,99323.66
2022-12-14T11:14:08.735Z,99326.66
2022-12-14T11:16:40.207Z,99310.56
2022-12-14T11:19:26.528Z,99316.66
2022-12-14T11:22:22.044Z,99307.44
2022-12-14T11:25:51.008Z,99304.44
2022-12-14T11:28:50.778Z,99294.25
2022-12-14T11:31:44.816Z,99294.81
2022-12-14T11:34:37.877Z,99284.25
2022-12-14T11:37:22.617Z,99286.25
2022-12-14T11:39:54.365Z,99265.72
2022-12-14T11:42:24.251Z,99259.84
2022-12-14T11:44:53.009Z,99259.97
2022-12-14T11:47:29.296Z,99247.53
2022-12-14T11:50:00.428Z,99258.50
2022-12-14T11:52:43.498Z,99248.94
2022-12-14T11:55:22.996Z,99251.50
2022-12-14T11:58:01.247Z,99259.94
2022-12-14T12:00:52.624Z,99266.72
2022-12-14T12:03:48.335Z,99259.94
2022-12-14T12:06:25.429Z,99262.25
2022-12-14T12:09:00.995Z,99248.19
2022-12-14T12:11:32.320Z,99234.31
2022-12-14T12:14:30.162Z,99219.00
2022-12-14T12:16:58.685Z,99217.88
2022-12-14T12:19:37.362Z,99214.88
2022-12-14T12:22:11.018Z,99202.81
2022-12-14T12:25:25.096Z,99196.47
2022-12-14T12:28:04.563Z,99201.34
2022-12-14T12:30:39.427Z,99209.56
2022-12-14T12:33:43.240Z,99190.91
2022-12-14T12:36:12.295Z,99190.81
2022-12-14T12:39:04.361Z,99176.50
2022-12-14T12:42:04.965Z,99188.38
2022-12-14T12:44:53.094Z,99189.91
2022-12-14T12:47:46.124Z,99181.81
2022-12-14T12:50:20.280Z,99194.69
2022-12-14T12:53:03.217Z,99199.81
2022-12-14T12:55:49.221Z,99190.59
2022-12-14T12:58:29.135Z,99196.25
2022-12-14T13:01:07.607Z,99200.13
2022-12-14T13:03:45.310Z,99187.25
2022-12-14T13:06:32.151Z,99196.00
2022-12-14T13:09:14.996Z,99169.84
2022-12-14T13:11:44.068Z,99168.81
2022-12-14T13:14:29.056Z,99174.25
2022-12-14T13:16:59.536Z,99175.81
2022-12-14T13:19:50.649Z,99171.72
2022-12-14T13:22:28.708Z,99166.63
2022-12-14T13:25:14.116Z,99156.84
2022-12-14T13:28:22.275Z,99149.94
2022-12-14T13:31:12.054Z,99151.22
2022-12-14T13:33:55.033Z,99153.97
2022-12-14T13:37:07.248Z,99168.44
2022-12-14T13:40:14.442Z,99176.16
2022-12-14T13:43:12.119Z,99185.63
2022-12-14T13:45:49.733Z,99185.94
2022-12-14T13:48:23.595Z,99189.59
2022-12-14T13:51:05.435Z,99203.44
2022-12-14T13:53:50.781Z,99192.34
2022-12-14T13:56:32.721Z,99176.38
2022-12-14T13:59:06.443Z,99170.84
2022-12-14T14:02:02.172Z,99164.53
2022-12-14T14:04:32.224Z,99167.00
2022-12-14T14:07:24.602Z,99173.06
2022-12-14T14:10:26.691Z,99176.41
2022-12-14T14:12:54.386Z,99164.31
2022-12-14T14:15:35.530Z,99154.88
2022-12-14T14:18:27.404Z,99149.56
2022-12-14T14:21:13.875Z,99139.47
2022-12-14T14:24:10.296Z,99133.38
2022-12-14T14:26:42.879Z,99147.13
2022-12-14T14:29:20.084Z,99135.59
2022-12-14T14:32:27.884Z,99133.28
2022-12-14T14:34:55.612Z,99142.25
2022-12-14T14:37:37.716Z,99146.22
2022-12-14T14:40:22.039Z,99164.28
2022-12-14T14:43:07.784Z,99163.19
2022-12-14T14:45:53.637Z,99173.81
2022-12-14T14:48:35.776Z,99173.81
2022-12-14T14:51:29.947Z,99169.38
2022-12-14T14:54:46.195Z,99162.50
2022-12-14T14:57:57.406Z,99160.31
2022-12-14T15:00:26.004Z,99165.63
2022-12-14T15:02:55.719Z,99166.72
2022-12-14T15:05:47.277Z,99171.59
2022-12-14T15:08:36.236Z,99184.47
2022-12-14T15:11:15.120Z,99182.34
2022-12-14T15:14:15.311Z,99188.00
2022-12-14T15:16:46.439Z,99183.00
2022-12-14T15:19:36.170Z,99178.88
2022-12-14T15:22:14.953Z,99178.78
2022-12-14T15:24:49.685Z,99172.69
2022-12-14T15:27:24.370Z,99175.66
2022-12-14T15:29:53.896Z,99168.00
2022-12-14T15:32:24.297Z,99159.72
2022-12-14T15:35:06.983Z,99148.19
2022-12-14T15:38:00.612Z,99136.44
2022-12-14T15:40:31.119Z,99143.31
2022-12-14T15:43:03.766Z,99138.97
2022-12-14T15:45:41.345Z,99123.94
2022-12-14T15:48:14.542Z,99127.81
2022-12-14T15:50:46.121Z,99132.03
2022-12-14T15:53:24.281Z,99133.13
2022-12-14T15:56:00.353Z,99122.03
2022-12-14T15:58:34.619Z,99125.13
2022-12-14T16:01:26.008Z,99128.53
2022-12-14T16:04:00.811Z,99120.41
2022-12-14T16:06:31.310Z,99127.00
2022-12-14T16:09:28.549Z,99127.84
2022-12-14T16:12:09.693Z,99123.19
2022-12-14T16:14:56.998Z,99123.38
2022-12-14T16:17:37.035Z,99114.97
2022-12-14T16:20:26.292Z,99111.22
2022-12-14T16:23:05.346Z,99099.66
2022-12-14T16:25:37.384Z,99086.31
2022-12-14T16:28:42.060Z,99097.44
2022-12-14T16:31:22.887Z,99093.56
2022-12-14T16:34:20.034Z,99085.53
2022-12-14T16:37:30.437Z,99091.94
2022-12-14T16:39:47.232Z,99085.72
2022-12-14T16:42:26.949Z,99088.53
2022-12-14T16:44:54.496Z,99087.53
2022-12-14T16:47:49.331Z,99074.78
2022-12-14T16:50:56.232Z,99069.16
2022-12-14T16:53:26.560Z,99076.63
2022-12-14T16:56:15.747Z,99085.03
2022-12-14T16:59:04.123Z,99070.84
2022-12-14T17:01:44.849Z,99077.91
2022-12-14T17:04:16.048Z,99079.00
2022-12-14T17:06:52.762Z,99075.91
2022-12-14T17:09:27.478Z,99064.38
2022-12-14T17:12:00.339Z,99078.00
2022-12-14T17:14:28.774Z,99079.75
2022-12-14T17:17:02.090Z,99067.88
2022-12-14T17:19:39.019Z,99069.06
2022-12-14T17:22:16.424Z,99070.38
2022-12-14T17:24:44.806Z,99056.53
2022-12-14T17:27:18.158Z,99057.38
2022-12-14T17:29:46.169Z,99053.19
2022-12-14T17:32:16.661Z,99042.69
2022-12-14T17:34:45.854Z,99041.38
2022-12-14T17:37:19.596Z,99048.22
2022-12-14T17:39:48.406Z,99044.69
2022-12-14T17:42:20.981Z,99049.41
2022-12-14T17:44:56.806Z,99044.09
2022-12-14T17:47:25.758Z,99031.03
2022-12-14T17:49:53.769Z,99041.19
2022-12-14T17:52:29.869Z,99038.88
2022-12-14T17:54:59.540Z,99026.91
2022-12-14T17:57:28.579Z,99027.25
2022-12-14T18:00:18.461Z,99032.09
2022-12-14T18:02:46.382Z,99035.84
2022-12-14T18:05:21.474Z,99026.88
2022-12-14T18:07:49.927Z,99020.78
2022-12-14T18:10:19.054Z,99032.09
2022-12-14T18:12:47.060Z,99023.25
2022-12-14T18:15:26.677Z,99028.84
2022-12-14T18:17:54.753Z,99024.16
2022-12-14T18:20:24.312Z,99018.09
2022-12-14T18:22:53.068Z,99018.84
2022-12-14T18:25:43.475Z,99024.16
2022-12-14T18:28:16.030Z,99024.81
2022-12-14T18:30:55.058Z,99036.09
2022-12-14T18:33:26.285Z,99016.41
2022-12-14T18:35:56.484Z,99022.59
2022-12-14T18:38:25.230Z,99022.03
2022-12-14T18:40:56.002Z,99017.81
2022-12-14T18:43:28.281Z,99004.53
2022-12-14T18:45:57.479Z,99007.47
2022-12-14T18:48:26.185Z,99019.75
2022-12-14T18:50:55.520Z,99010.88
2022-12-14T18:53:25.920Z,99008.66
2022-12-14T18:55:54.491Z,99001.97
2022-12-14T18:58:28.429Z,98995.13
2022-12-14T19:00:59.755Z,98985.38
2022-12-14T19:03:31.320Z,98972.41
2022-12-14T19:09:01.331Z,98984.31
2022-12-14T19:11:40.131Z,98977.47
2022-12-14T19:14:08.454Z,98974.88
2022-12-14T19:16:36.469Z,98981.66
2022-12-14T19:19:04.469Z,98984.19
2022-12-14T19:21:32.444Z,98975.63
2022-12-14T19:24:00.119Z,98980.06
2022-12-14T19:26:29.421Z,98983.81
2022-12-14T19:28:57.303Z,98971.66
2022-12-14T19:31:25.619Z,98974.63
2022-12-14T19:33:54.442Z,98977.47
2022-12-14T19:36:22.443Z,98992.03
2022-12-14T19:38:50.255Z,98985.97
2022-12-14T19:41:20.641Z,98987.06
2022-12-14T19:43:48.705Z,98991.28
2022-12-14T19:46:18.092Z,98985.84
2022-12-14T19:48:46.669Z,98975.44
2022-12-14T19:51:14.930Z,98984.03
2022-12-14T19:53:44.745Z,98991.06
2022-12-14T19:56:17.111Z,98975.16
2022-12-14T19:58:45.498Z,98986.31
2022-12-14T20:01:16.581Z,98992.72
2022-12-14T20:03:44.546Z,98999.09
2022-12-14T20:06:12.652Z,99001.31
2022-12-14T20:08:40.381Z,98995.25
2022-12-14T20:11:11.119Z,98998.47
2022-12-14T20:13:40.977Z,99014.84
2022-12-14T20:16:17.280Z,99010.78
2022-12-14T20:18:47.000Z,99008.13
2022-12-14T20:21:22.198Z,99014.50
2022-12-14T20:23:51.747Z,99000.59
2022-12-14T20:26:23.846Z,99004.03
2022-12-14T20:28:58.737Z,99002.81
2022-12-14T20:31:27.429Z,99008.03
2022-12-14T20:33:55.183Z,99004.56
2022-12-14T20:36:25.093Z,99001.69
2022-12-14T20:39:03.478Z,99005.75
2022-12-14T20:41:33.216Z,99006.28
2022-12-14T20:44:04.461Z,99003.19
2022-12-14T20:46:35.865Z,99001.13
2022-12-14T20:49:13.104Z,99001.47
2022-12-14T20:51:42.159Z,98996.91
2022-12-14T20:54:14.720Z,98998.97
2022-12-14T20:56:43.424Z,99014.06
2022-12-14T20:59:12.021Z,99008.63
2022-12-14T21:01:42.363Z,99003.34
2022-12-14T21:04:10.615Z,99020.97
2022-12-14T21:06:41.870Z,99017.56
2022-12-14T21:09:11.790Z,99013.22
2022-12-14T21:12:05.593Z,99029.94
2022-12-14T21:14:42.706Z,99028.72
2022-12-14T21:17:11.132Z,99019.59
2022-12-14T21:19:38.951Z,99022.44
2022-12-14T21:22:10.574Z,99017.88
2022-12-14T21:25:02.367Z,99011.44
2022-12-14T21:27:30.562Z,99016.81
2022-12-14T21:29:58.312Z,99012.56
2022-12-14T21:32:26.411Z,99019.44
2022-12-14T21:34:54.074Z,99021.97
2022-12-14T21:37:22.683Z,99016.63
2022-12-14T21:39:54.205Z,99012.81
2022-12-14T21:42:27.794Z,99011.19
2022-12-14T21:44:56.507Z,99017.56
2022-12-14T21:47:29.923Z,99006.56
2022-12-14T21:50:03.611Z,99018.59
2022-12-14T21:52:32.633Z,99007.88
2022-12-14T21:55:00.404Z,99005.09
2022-12-14T21:57:49.379Z,99011.03
2022-12-14T22:00:25.310Z,99016.16
2022-12-14T22:02:56.539Z,99013.63
2022-12-14T22:05:25.017Z,99005.97
2022-12-14T22:07:53.042Z,99016.53
2022-12-14T22:10:27.639Z,99023.72
2022-12-14T22:12:57.437Z,99015.94
2022-12-14T22:15:25.208Z,99020.22
2022-12-14T22:17:53.532Z,99005.72
2022-12-14T22:20:21.773Z,99014.78
2022-12-14T22:22:49.822Z,99017.09
2022-12-14T22:25:17.694Z,99008.13
2022-12-14T22:27:50.142Z,99011.41
2022-12-14T22:30:20.025Z,99016.59
2022-12-14T22:32:48.512Z,99027.69
2022-12-14T22:35:16.193Z,99026.31
2022-12-14T22:37:44.134Z,99023.53
2022-12-14T22:40:16.707Z,99035.84
2022-12-14T22:42:50.768Z,99031.31
2022-12-14T22:45:23.411Z,99044.56
2022-12-14T22:47:59.610Z,99049.75
2022-12-14T22:50:35.183Z,99054.09
2022-12-14T22:53:09.381Z,99059.84
2022-12-14T22:55:44.093Z,99040.03
2022-12-14T22:58:22.035Z,99053.28
2022-12-14T23:01:00.902Z,99057.19
2022-12-14T23:03:38.838Z,99047.34
2022-12-14T23:06:16.809Z,99060.16
2022-12-14T23:09:09.917Z,99052.22
2022-12-14T23:11:59.600Z,99052.53
2022-12-14T23:14:46.407Z,99058.16
2022-12-14T23:17:32.819Z,99060.03
2022-12-14T23:20:19.329Z,99065.34
2022-12-14T23:23:05.752Z,99065.47
2022-12-14T23:25:53.967Z,99063.91
2022-12-14T23:28:40.273Z,99064.38
2022-12-14T23:31:27.079Z,99065.91
2022-12-14T23:34:13.424Z,99074.13
2022-12-14T23:37:00.241Z,99068.00
2022-12-14T23:39:46.746Z,99066.47
2022-12-14T23:42:33.614Z,99069.72
2022-12-14T23:45:19.789Z,99062.06
2022-12-14T23:48:06.482Z,99064.28
2022-12-14T23:50:52.903Z,99069.13
2022-12-14T23:53:39.511Z,99081.91
2022-12-14T23:56:26.059Z,99074.44
2022-12-14T23:59:14.187Z,99062.13
